Hlavní strana
METAR-TAF:

METAR-TAF

Letiště :

Greenwood County Airport

Greenwood, Jižní Karolína, Spojené státy americké

zeměpisná šířka: 34-14-50N, zeměpisná délka: 082-09-17W, výška: 192 m

Aktuální stav počasí

Zpráva byla vytvořena před 45 minutami, v 12:56 UTC
Severoseverovýchodní vítr 3 kt
Teplota 8°C
Vlhkost vzduchu 93%
Tlak 1027 hPa
Viditelnost: 16.1 km
Skoro jasno ve výšce 3700 ft
Zataženo ve výšce 7000 ft

METAR: KGRD 251256Z AUTO 02003KT 10SM FEW037 OVC070 08/07 A3032 RMK AO2 RAE08B30E41 SLP267 P0001 T00780067

Čas: 08:41 (13:41 UTC)


TAF: chybějící

Stav a předpovědi počasí z více než 4 000 letišť (zprávy METAR a TAF).

Červené a žluté tečky na mapě představují dostupné meteorologické stanice.

Když kurzor umístíte na tečku, zobrazí se název stanice.

Pak kliknutím zobrazíte stav a předpověď počasí.

Chcete-li změnit mapu, kliknutím na zelené tlačítko se znaménkem +mapu přiblížíte, kliknutím na zelené tlačítko se znaménkem – mapu oddálíte a kliknutím na zelené šipky přejdete na sousední mapy.


METAR-TAF: